Pine Grove, Oregon
Current Conditions -  °F | °C
As of 7:53 PM on Wednesday 17 Dec 2014 (Local Time) from KDLS Reporting Station
Haze Haze  
Wind Chill: 40°   Ceiling: 2400
Heat Index: 40°   Visibility: 5mi
Dew Point: 38°   Wind: 0mph
Humidity: 93%   Direction: NA
Pressure: 30.02"   Gusts: NA
Location:  45.0212°N, 121.451°W
Report Text: KDLS 180353Z AUTO 00000KT 5SM BR OVC024 04/03 A3002 RMK AO2 SLP167 T00440033
Loading
Personal Weather Stations






























Interactive Weather Map New forecast layout! Learn more

10-Day Weather Forecast

Advertisements
Track Severe Weather on mobile